createdAt,value
2018-12-12T00:02:05.811Z,99.90
2018-12-12T00:04:34.910Z,99.90
2018-12-12T00:07:04.287Z,99.90
2018-12-12T00:09:33.365Z,99.90
2018-12-12T00:12:02.428Z,99.90
2018-12-12T00:14:31.556Z,99.90
2018-12-12T00:17:00.631Z,99.90
2018-12-12T00:19:29.937Z,99.90
2018-12-12T00:21:59.087Z,99.90
2018-12-12T00:24:28.150Z,99.90
2018-12-12T00:26:57.250Z,99.90
2018-12-12T00:29:26.382Z,99.90
2018-12-12T00:31:55.479Z,99.90
2018-12-12T00:34:24.573Z,99.90
2018-12-12T00:36:53.841Z,99.90
2018-12-12T00:39:22.909Z,99.90
2018-12-12T00:41:51.995Z,99.90
2018-12-12T00:44:21.118Z,99.90
2018-12-12T00:46:50.529Z,99.90
2018-12-12T00:49:19.701Z,99.90
2018-12-12T00:51:48.904Z,99.90
2018-12-12T00:54:18.415Z,99.90
2018-12-12T00:56:47.517Z,99.90
2018-12-12T00:59:17.583Z,99.90
2018-12-12T01:01:46.721Z,99.90
2018-12-12T01:04:15.785Z,99.90
2018-12-12T01:06:44.896Z,99.90
2018-12-12T01:09:13.974Z,99.90
2018-12-12T01:11:48.285Z,99.90
2018-12-12T01:14:17.463Z,99.90
2018-12-12T01:16:46.541Z,99.90
2018-12-12T01:19:15.639Z,99.90
2018-12-12T01:21:44.763Z,99.90
2018-12-12T01:24:13.958Z,99.90
2018-12-12T01:26:43.089Z,99.90
2018-12-12T01:29:12.288Z,99.90
2018-12-12T01:31:41.358Z,99.90
2018-12-12T01:34:10.487Z,99.90
2018-12-12T01:36:39.569Z,99.90
2018-12-12T01:39:08.635Z,99.90
2018-12-12T01:41:37.749Z,99.90
2018-12-12T01:44:06.823Z,99.90
2018-12-12T01:46:35.859Z,99.90
2018-12-12T01:49:04.965Z,99.90
2018-12-12T01:51:34.039Z,99.90
2018-12-12T01:54:03.115Z,99.90
2018-12-12T01:56:32.655Z,99.90
2018-12-12T01:59:01.723Z,99.90
2018-12-12T02:01:31.379Z,99.90
2018-12-12T02:04:01.376Z,99.90
2018-12-12T02:06:30.424Z,99.90
2018-12-12T02:08:59.533Z,99.90
2018-12-12T02:11:28.654Z,99.90
2018-12-12T02:13:57.723Z,99.90
2018-12-12T02:16:26.811Z,99.90
2018-12-12T02:18:56.051Z,99.90
2018-12-12T02:21:25.138Z,99.90
2018-12-12T02:23:54.215Z,99.90
2018-12-12T02:26:23.365Z,99.90
2018-12-12T02:28:52.431Z,99.90
2018-12-12T02:31:21.515Z,99.90
2018-12-12T02:33:51.476Z,99.90
2018-12-12T02:36:21.149Z,99.90
2018-12-12T02:38:50.235Z,99.90
2018-12-12T02:41:19.343Z,99.90
2018-12-12T02:43:48.413Z,99.90
2018-12-12T02:46:17.467Z,99.90
2018-12-12T02:48:46.563Z,99.90
2018-12-12T02:51:15.631Z,99.90
2018-12-12T02:53:44.682Z,99.90
2018-12-12T02:56:13.773Z,99.90
2018-12-12T02:58:43.031Z,99.90
2018-12-12T03:01:12.071Z,99.90
2018-12-12T03:03:41.156Z,99.90
2018-12-12T03:06:10.221Z,99.90
2018-12-12T03:08:39.275Z,99.90
2018-12-12T03:11:08.381Z,99.90
2018-12-12T03:13:37.438Z,99.90
2018-12-12T03:16:06.609Z,99.90
2018-12-12T03:18:35.747Z,99.90
2018-12-12T03:21:04.838Z,99.90
2018-12-12T03:23:33.901Z,99.90
2018-12-12T03:26:03.119Z,99.90
2018-12-12T03:28:32.223Z,99.90
2018-12-12T03:31:01.301Z,99.90
2018-12-12T03:33:30.377Z,99.90
2018-12-12T03:35:59.472Z,99.90
2018-12-12T03:38:28.917Z,99.90
2018-12-12T03:40:58.135Z,99.90
2018-12-12T03:43:27.182Z,99.90
2018-12-12T03:45:56.243Z,99.90
2018-12-12T03:48:25.327Z,99.90
2018-12-12T03:50:54.416Z,99.90
2018-12-12T03:53:23.439Z,99.90
2018-12-12T03:55:52.519Z,99.90
2018-12-12T03:58:21.577Z,99.90
2018-12-12T04:00:50.819Z,99.90
2018-12-12T04:03:19.912Z,99.90
2018-12-12T04:05:48.987Z,99.90
2018-12-12T04:08:18.071Z,99.90
2018-12-12T04:10:47.172Z,99.90
2018-12-12T04:13:16.255Z,99.90
2018-12-12T04:15:45.341Z,99.90
2018-12-12T04:18:14.516Z,99.90
2018-12-12T04:20:43.598Z,99.90
2018-12-12T04:23:12.651Z,99.90
2018-12-12T04:25:42.011Z,99.90
2018-12-12T04:28:11.084Z,99.90
2018-12-12T04:30:40.177Z,99.90
2018-12-12T04:33:09.306Z,99.90
2018-12-12T04:35:38.683Z,99.90
2018-12-12T04:38:07.833Z,99.90
2018-12-12T04:40:36.962Z,99.90
2018-12-12T04:43:06.048Z,99.90
2018-12-12T04:45:35.118Z,99.90
2018-12-12T04:48:04.215Z,99.90
2018-12-12T04:50:33.823Z,99.90
2018-12-12T04:53:02.901Z,99.90
2018-12-12T04:55:32.014Z,99.90
2018-12-12T04:58:01.292Z,99.90
2018-12-12T05:00:30.368Z,99.90
2018-12-12T05:02:59.852Z,99.90
2018-12-12T05:05:28.904Z,99.90
2018-12-12T05:07:57.957Z,99.90
2018-12-12T05:10:27.079Z,99.90
2018-12-12T05:12:56.144Z,99.90
2018-12-12T05:15:25.214Z,99.90
2018-12-12T05:17:54.417Z,99.90
2018-12-12T05:20:23.544Z,99.90
2018-12-12T05:22:52.639Z,99.90
2018-12-12T05:25:21.735Z,99.90
2018-12-12T05:27:50.779Z,99.90
2018-12-12T05:30:19.880Z,99.90
2018-12-12T05:32:48.983Z,99.90
2018-12-12T05:35:18.041Z,99.90
2018-12-12T05:37:51.910Z,99.90
2018-12-12T05:40:18.798Z,99.90
2018-12-12T05:42:48.298Z,99.90
2018-12-12T05:45:18.528Z,99.90
2018-12-12T05:47:48.169Z,99.90
2018-12-12T05:50:17.208Z,99.90
2018-12-12T05:52:46.473Z,99.90
2018-12-12T05:55:15.779Z,99.90
2018-12-12T05:57:44.833Z,99.90
2018-12-12T06:00:15.019Z,99.90
2018-12-12T06:02:44.063Z,99.90
2018-12-12T06:05:13.916Z,99.90
2018-12-12T06:07:43.359Z,99.90
2018-12-12T06:10:12.653Z,99.90
2018-12-12T06:12:41.793Z,99.90
2018-12-12T06:15:10.853Z,99.90
2018-12-12T06:17:39.905Z,99.90
2018-12-12T06:20:09.208Z,99.90
2018-12-12T06:22:38.737Z,99.90
2018-12-12T06:25:08.015Z,99.90
2018-12-12T06:27:37.107Z,99.90
2018-12-12T06:30:07.431Z,99.90
2018-12-12T06:32:36.868Z,99.90
2018-12-12T06:35:06.269Z,99.90
2018-12-12T06:37:35.327Z,99.90
2018-12-12T06:40:05.312Z,99.90
2018-12-12T06:42:34.370Z,99.90
2018-12-12T06:45:04.699Z,99.90
2018-12-12T06:47:35.317Z,99.90
2018-12-12T06:50:05.283Z,99.90
2018-12-12T06:52:35.727Z,99.90
2018-12-12T06:55:05.045Z,99.90
2018-12-12T06:57:35.251Z,99.90
2018-12-12T07:00:05.605Z,99.90
2018-12-12T07:02:34.668Z,99.90
2018-12-12T07:05:04.667Z,99.90
2018-12-12T07:07:34.415Z,99.90
2018-12-12T07:10:03.777Z,99.90
2018-12-12T07:12:32.829Z,99.90
2018-12-12T07:15:02.163Z,99.90
2018-12-12T07:17:31.286Z,99.90
2018-12-12T07:20:00.497Z,99.90
2018-12-12T07:22:36.345Z,99.90
2018-12-12T07:25:05.887Z,99.90
2018-12-12T07:27:35.274Z,99.90
2018-12-12T07:30:05.429Z,99.90
2018-12-12T07:32:34.629Z,99.90
2018-12-12T07:35:03.957Z,99.90
2018-12-12T07:37:33.080Z,99.90
2018-12-12T07:40:02.129Z,99.90
2018-12-12T07:42:31.905Z,99.90
2018-12-12T07:45:01.311Z,99.90
2018-12-12T07:47:30.679Z,99.90
2018-12-12T07:49:59.803Z,99.90
2018-12-12T07:52:28.917Z,99.90
2018-12-12T07:54:57.951Z,99.90
2018-12-12T07:57:26.991Z,99.90
2018-12-12T07:59:56.423Z,99.90
2018-12-12T08:02:26.205Z,99.90
2018-12-12T08:04:55.247Z,99.90
2018-12-12T08:07:24.359Z,99.90
2018-12-12T08:09:53.421Z,99.90
2018-12-12T08:12:22.479Z,99.90
2018-12-12T08:14:51.614Z,99.90
2018-12-12T08:17:20.675Z,99.90
2018-12-12T08:19:49.731Z,99.90
2018-12-12T08:22:18.827Z,99.90
2018-12-12T08:24:48.093Z,99.90
2018-12-12T08:27:17.281Z,99.90
2018-12-12T08:29:46.375Z,99.90
2018-12-12T08:32:15.451Z,99.90
2018-12-12T08:34:44.547Z,99.90
2018-12-12T08:37:13.585Z,99.90
2018-12-12T08:39:42.726Z,99.90
2018-12-12T08:42:11.957Z,99.90
2018-12-12T08:44:47.788Z,99.90
2018-12-12T08:47:16.861Z,99.90
2018-12-12T08:49:45.939Z,99.90
2018-12-12T08:52:15.049Z,99.90
2018-12-12T08:54:44.160Z,99.90
2018-12-12T08:57:13.799Z,99.90
2018-12-12T08:59:42.870Z,99.90
2018-12-12T09:02:11.996Z,99.90
2018-12-12T09:04:41.463Z,99.90
2018-12-12T09:07:10.563Z,99.90
2018-12-12T09:09:39.653Z,99.90
2018-12-12T09:12:08.715Z,99.90
2018-12-12T09:14:38.511Z,99.90
2018-12-12T09:17:09.874Z,99.90
2018-12-12T09:19:38.687Z,99.90
2018-12-12T09:22:07.827Z,99.90
2018-12-12T09:24:37.605Z,99.90
2018-12-12T09:27:06.667Z,99.90
2018-12-12T09:29:35.837Z,99.90
2018-12-12T09:32:04.943Z,99.90
2018-12-12T09:34:33.975Z,99.90
2018-12-12T09:37:03.740Z,99.90
2018-12-12T09:39:32.785Z,99.90
2018-12-12T09:42:01.859Z,99.90
2018-12-12T09:44:31.059Z,99.90
2018-12-12T09:47:00.150Z,99.90
2018-12-12T09:49:29.229Z,99.90
2018-12-12T09:51:58.302Z,99.90
2018-12-12T09:54:27.388Z,99.90
2018-12-12T09:56:56.547Z,99.90
2018-12-12T09:59:25.644Z,99.90
2018-12-12T10:01:54.728Z,99.90
2018-12-12T10:04:23.763Z,99.90
2018-12-12T10:06:53.354Z,99.90
2018-12-12T10:09:22.394Z,99.90
2018-12-12T10:11:51.456Z,99.90
2018-12-12T10:14:20.548Z,99.90
2018-12-12T10:16:50.356Z,99.90
2018-12-12T10:19:19.542Z,99.90
2018-12-12T10:21:50.121Z,99.90
2018-12-12T10:24:19.507Z,99.90
2018-12-12T10:26:48.569Z,99.90
2018-12-12T10:29:17.691Z,99.90
2018-12-12T10:31:46.744Z,99.90
2018-12-12T10:34:15.793Z,99.90
2018-12-12T10:36:44.873Z,99.90
2018-12-12T10:39:14.028Z,99.90
2018-12-12T10:41:43.242Z,99.90
2018-12-12T10:44:12.382Z,99.90
2018-12-12T10:46:41.456Z,99.90
2018-12-12T10:49:10.522Z,99.90
2018-12-12T10:51:39.677Z,99.90
2018-12-12T10:54:08.740Z,99.90
2018-12-12T10:56:37.807Z,99.90
2018-12-12T10:59:06.913Z,99.90
2018-12-12T11:01:41.275Z,99.90
2018-12-12T11:04:10.355Z,99.90
2018-12-12T11:06:39.577Z,99.50
2018-12-12T11:09:09.236Z,98.60
2018-12-12T11:11:38.358Z,98.20
2018-12-12T11:14:07.429Z,97.40
2018-12-12T11:16:36.515Z,96.50
2018-12-12T11:19:05.712Z,96.70
2018-12-12T11:21:34.837Z,96.30
2018-12-12T11:24:03.892Z,95.70
2018-12-12T11:26:33.087Z,94.60
2018-12-12T11:29:02.180Z,93.70
2018-12-12T11:31:31.695Z,93.40
2018-12-12T11:34:00.837Z,92.40
2018-12-12T11:36:29.952Z,92.00
2018-12-12T11:38:59.181Z,91.30
2018-12-12T11:41:29.079Z,90.30
2018-12-12T11:43:58.140Z,88.80
2018-12-12T11:46:27.185Z,88.30
2018-12-12T11:48:56.940Z,86.90
2018-12-12T11:51:26.032Z,87.30
2018-12-12T11:53:55.083Z,88.10
2018-12-12T11:56:24.184Z,85.10
2018-12-12T11:58:53.215Z,84.70
2018-12-12T12:01:22.393Z,84.60
2018-12-12T12:03:56.749Z,84.20
2018-12-12T12:06:22.663Z,82.00
2018-12-12T12:08:51.769Z,79.20
2018-12-12T12:11:21.001Z,78.50
2018-12-12T12:13:50.071Z,80.10
2018-12-12T12:16:19.187Z,78.70
2018-12-12T12:18:48.254Z,77.90
2018-12-12T12:21:17.368Z,78.00
2018-12-12T12:23:46.416Z,77.80
2018-12-12T12:26:15.790Z,77.80
2018-12-12T12:28:44.834Z,77.50
2018-12-12T12:31:14.024Z,75.50
2018-12-12T12:33:43.756Z,79.00
2018-12-12T12:36:12.800Z,78.40
2018-12-12T12:38:41.888Z,77.80
2018-12-12T12:41:10.959Z,78.30
2018-12-12T12:43:40.226Z,76.90
2018-12-12T12:46:09.298Z,75.70
2018-12-12T12:48:38.476Z,78.30
2018-12-12T12:51:07.527Z,79.60
2018-12-12T12:53:36.650Z,76.50
2018-12-12T12:56:05.682Z,77.10
2018-12-12T12:58:35.366Z,76.90
2018-12-12T13:01:04.471Z,76.60
2018-12-12T13:03:33.626Z,72.80
2018-12-12T13:06:02.676Z,71.60
2018-12-12T13:08:31.763Z,70.80
2018-12-12T13:11:00.868Z,72.50
2018-12-12T13:13:30.115Z,71.80
2018-12-12T13:15:59.599Z,72.80
2018-12-12T13:18:28.655Z,73.30
2018-12-12T13:20:57.867Z,73.40
2018-12-12T13:23:27.546Z,71.60
2018-12-12T13:25:56.693Z,74.60
2018-12-12T13:28:25.781Z,73.90
2018-12-12T13:30:55.029Z,74.90
2018-12-12T13:33:24.761Z,76.10
2018-12-12T13:35:54.411Z,80.80
2018-12-12T13:38:23.473Z,85.00
2018-12-12T13:40:52.683Z,91.30
2018-12-12T13:43:21.819Z,92.00
2018-12-12T13:45:50.898Z,92.80
2018-12-12T13:48:19.935Z,93.80
2018-12-12T13:50:48.961Z,93.70
2018-12-12T13:53:18.184Z,91.70
2018-12-12T13:55:47.230Z,92.10
2018-12-12T13:58:16.286Z,92.10
2018-12-12T14:00:45.367Z,90.10
2018-12-12T14:03:14.416Z,87.40
2018-12-12T14:05:43.453Z,84.30
2018-12-12T14:08:12.507Z,82.10
2018-12-12T14:10:41.551Z,82.30
2018-12-12T14:13:10.600Z,80.10
2018-12-12T14:15:39.664Z,80.50
2018-12-12T14:18:08.842Z,81.20
2018-12-12T14:20:37.886Z,80.40
2018-12-12T14:23:06.959Z,80.40
2018-12-12T14:25:35.976Z,79.90
2018-12-12T14:28:05.163Z,79.80
2018-12-12T14:30:34.216Z,80.30
2018-12-12T14:33:03.281Z,81.60
2018-12-12T14:35:32.533Z,78.40
2018-12-12T14:38:01.915Z,80.70
2018-12-12T14:40:31.050Z,80.90
2018-12-12T14:43:00.101Z,84.30
2018-12-12T14:45:29.216Z,84.70
2018-12-12T14:47:58.250Z,85.90
2018-12-12T14:50:27.284Z,87.10
2018-12-12T14:52:56.343Z,88.30
2018-12-12T14:55:25.371Z,90.60
2018-12-12T14:57:54.402Z,91.00
2018-12-12T15:00:23.480Z,90.60
2018-12-12T15:02:52.514Z,92.20
2018-12-12T15:05:21.527Z,93.30
2018-12-12T15:07:50.601Z,93.00
2018-12-12T15:10:19.616Z,93.30
2018-12-12T15:12:48.651Z,95.00
2018-12-12T15:15:17.729Z,96.60
2018-12-12T15:17:46.745Z,97.70
2018-12-12T15:20:15.805Z,98.60
2018-12-12T15:22:44.911Z,99.90
2018-12-12T15:25:13.945Z,99.90
2018-12-12T15:27:43.602Z,99.90
2018-12-12T15:30:12.721Z,99.90
2018-12-12T15:32:42.146Z,99.90
2018-12-12T15:35:12.163Z,99.90
2018-12-12T15:37:41.231Z,99.90
2018-12-12T15:40:11.401Z,99.90
2018-12-12T15:42:40.499Z,99.90
2018-12-12T15:45:09.563Z,99.90
2018-12-12T15:47:39.152Z,99.90
2018-12-12T15:50:08.354Z,99.90
2018-12-12T15:52:37.884Z,99.90
2018-12-12T15:55:07.061Z,99.90
2018-12-12T15:57:36.100Z,99.90
2018-12-12T16:00:06.484Z,99.90
2018-12-12T16:02:35.841Z,99.90
2018-12-12T16:05:05.539Z,99.90
2018-12-12T16:07:34.590Z,99.90
2018-12-12T16:10:04.258Z,99.90
2018-12-12T16:12:33.308Z,99.90
2018-12-12T16:15:02.366Z,99.90
2018-12-12T16:17:31.464Z,99.90
2018-12-12T16:20:00.915Z,99.90
2018-12-12T16:22:29.978Z,99.90
2018-12-12T16:24:59.056Z,99.90
2018-12-12T16:27:28.217Z,99.90
2018-12-12T16:29:57.272Z,99.90
2018-12-12T16:32:26.320Z,99.90
2018-12-12T16:34:55.747Z,99.90
2018-12-12T16:37:25.154Z,99.90
2018-12-12T16:39:54.220Z,99.90
2018-12-12T16:42:24.025Z,99.90
2018-12-12T16:44:53.054Z,99.90
2018-12-12T16:47:22.132Z,99.90
2018-12-12T16:49:51.284Z,99.90
2018-12-12T16:52:20.351Z,99.90
2018-12-12T16:54:49.429Z,99.90
2018-12-12T16:57:18.476Z,99.90
2018-12-12T16:59:47.570Z,99.90
2018-12-12T17:02:16.618Z,99.90
2018-12-12T17:04:45.669Z,99.90
2018-12-12T17:07:14.988Z,99.90
2018-12-12T17:09:44.060Z,99.90
2018-12-12T17:12:13.121Z,99.90
2018-12-12T17:14:42.162Z,99.90
2018-12-12T17:17:11.400Z,99.90
2018-12-12T17:19:40.518Z,99.90
2018-12-12T17:22:09.574Z,99.90
2018-12-12T17:24:38.700Z,99.90
2018-12-12T17:27:07.760Z,99.90
2018-12-12T17:29:37.481Z,99.90
2018-12-12T17:32:06.580Z,99.90
2018-12-12T17:34:35.667Z,99.90
2018-12-12T17:37:04.809Z,99.90
2018-12-12T17:39:33.908Z,99.90
2018-12-12T17:42:03.051Z,99.90
2018-12-12T17:44:32.586Z,99.90
2018-12-12T17:47:01.667Z,99.90
2018-12-12T17:49:30.740Z,99.90
2018-12-12T17:51:59.834Z,99.90
2018-12-12T17:54:28.916Z,99.90
2018-12-12T17:56:57.990Z,99.90
2018-12-12T17:59:27.118Z,99.90
2018-12-12T18:01:56.279Z,99.90
2018-12-12T18:04:25.581Z,99.90
2018-12-12T18:06:54.637Z,99.90
2018-12-12T18:09:23.728Z,99.90
2018-12-12T18:11:52.821Z,99.90
2018-12-12T18:14:21.935Z,99.90
2018-12-12T18:16:50.990Z,99.90
2018-12-12T18:19:20.058Z,99.90
2018-12-12T18:21:49.150Z,99.90
2018-12-12T18:24:18.204Z,99.90
2018-12-12T18:26:48.015Z,99.90
2018-12-12T18:29:17.092Z,99.90
2018-12-12T18:31:46.140Z,99.90
2018-12-12T18:34:15.770Z,99.90
2018-12-12T18:36:44.899Z,99.90
2018-12-12T18:39:14.098Z,99.90
2018-12-12T18:41:43.166Z,99.90
2018-12-12T18:44:12.254Z,99.90
2018-12-12T18:46:41.566Z,99.90
2018-12-12T18:49:10.618Z,99.90
2018-12-12T18:51:39.714Z,99.90
2018-12-12T18:54:08.931Z,99.90
2018-12-12T18:56:38.155Z,99.90
2018-12-12T18:59:07.812Z,99.90
2018-12-12T19:01:36.876Z,99.90
2018-12-12T19:04:05.953Z,99.90
2018-12-12T19:06:35.040Z,99.90
2018-12-12T19:09:05.595Z,99.90
2018-12-12T19:11:34.695Z,99.90
2018-12-12T19:14:03.836Z,99.90
2018-12-12T19:16:32.900Z,99.90
2018-12-12T19:19:02.054Z,99.90
2018-12-12T19:21:31.183Z,99.90
2018-12-12T19:24:00.287Z,99.90
2018-12-12T19:26:29.411Z,99.90
2018-12-12T19:28:58.487Z,99.90
2018-12-12T19:31:27.569Z,99.90
2018-12-12T19:33:56.660Z,99.90
2018-12-12T19:36:25.810Z,99.90
2018-12-12T19:38:54.892Z,99.90
2018-12-12T19:41:23.984Z,99.90
2018-12-12T19:43:53.104Z,99.90
2018-12-12T19:46:22.314Z,99.90
2018-12-12T19:48:51.644Z,99.90
2018-12-12T19:51:20.710Z,99.90
2018-12-12T19:53:49.818Z,99.90
2018-12-12T19:56:19.016Z,99.90
2018-12-12T19:58:48.098Z,99.90
2018-12-12T20:01:17.216Z,99.90
2018-12-12T20:03:46.294Z,99.90
2018-12-12T20:06:15.399Z,99.90
2018-12-12T20:08:44.596Z,99.90
2018-12-12T20:11:13.734Z,99.90
2018-12-12T20:13:42.824Z,99.90
2018-12-12T20:16:11.896Z,99.90
2018-12-12T20:18:41.036Z,99.90
2018-12-12T20:21:10.118Z,99.90
2018-12-12T20:23:39.230Z,99.90
2018-12-12T20:26:08.336Z,99.90
2018-12-12T20:28:37.405Z,99.90
2018-12-12T20:31:06.574Z,99.90
2018-12-12T20:33:35.686Z,99.90
2018-12-12T20:36:04.784Z,99.90
2018-12-12T20:38:34.592Z,99.90
2018-12-12T20:41:03.726Z,99.90
2018-12-12T20:43:32.797Z,99.90
2018-12-12T20:46:01.890Z,99.90
2018-12-12T20:48:31.093Z,99.90
2018-12-12T20:51:00.398Z,99.90
2018-12-12T20:53:29.441Z,99.90
2018-12-12T20:55:58.532Z,99.90
2018-12-12T20:58:27.614Z,99.90
2018-12-12T21:00:56.688Z,99.90
2018-12-12T21:03:25.814Z,99.90
2018-12-12T21:05:54.890Z,99.90
2018-12-12T21:08:23.969Z,99.90
2018-12-12T21:10:53.060Z,99.90
2018-12-12T21:13:22.144Z,99.90
2018-12-12T21:15:51.223Z,99.90
2018-12-12T21:18:20.340Z,99.90
2018-12-12T21:20:49.407Z,99.90
2018-12-12T21:23:18.481Z,99.90
2018-12-12T21:25:48.088Z,99.90
2018-12-12T21:28:17.152Z,99.90
2018-12-12T21:30:46.215Z,99.90
2018-12-12T21:33:15.302Z,99.90
2018-12-12T21:35:44.358Z,99.90
2018-12-12T21:38:13.417Z,99.90
2018-12-12T21:40:42.694Z,99.90
2018-12-12T21:43:11.772Z,99.90
2018-12-12T21:45:40.849Z,99.90
2018-12-12T21:48:09.937Z,99.90
2018-12-12T21:50:39.043Z,99.90
2018-12-12T21:53:08.244Z,99.90
2018-12-12T21:55:38.212Z,99.90
2018-12-12T21:58:07.261Z,99.90
2018-12-12T22:00:36.332Z,99.90
2018-12-12T22:03:05.452Z,99.90
2018-12-12T22:05:34.524Z,99.90
2018-12-12T22:08:03.740Z,99.90
2018-12-12T22:10:32.806Z,99.90
2018-12-12T22:13:01.928Z,99.90
2018-12-12T22:15:31.096Z,99.90
2018-12-12T22:18:00.177Z,99.90
2018-12-12T22:20:29.262Z,99.90
2018-12-12T22:22:58.387Z,99.90
2018-12-12T22:25:28.150Z,99.90
2018-12-12T22:27:57.236Z,99.90
2018-12-12T22:30:26.360Z,99.90
2018-12-12T22:32:55.799Z,99.90
2018-12-12T22:35:24.879Z,99.90
2018-12-12T22:37:53.963Z,99.90
2018-12-12T22:40:23.073Z,99.90
2018-12-12T22:42:52.134Z,99.90
2018-12-12T22:45:21.246Z,99.90
2018-12-12T22:47:51.236Z,99.90
2018-12-12T22:50:20.316Z,99.90
2018-12-12T22:52:49.406Z,99.90
2018-12-12T22:55:18.751Z,99.90
2018-12-12T22:57:47.813Z,99.90
2018-12-12T23:00:22.351Z,99.90
2018-12-12T23:02:51.427Z,99.90
2018-12-12T23:05:20.532Z,99.90
2018-12-12T23:07:49.648Z,99.90
2018-12-12T23:10:18.761Z,99.90
2018-12-12T23:12:47.822Z,99.90
2018-12-12T23:15:16.917Z,99.90
2018-12-12T23:17:46.006Z,99.90
2018-12-12T23:20:15.151Z,99.90
2018-12-12T23:22:44.215Z,99.90
2018-12-12T23:25:13.345Z,99.90
2018-12-12T23:27:42.455Z,99.90
2018-12-12T23:30:11.583Z,99.90
2018-12-12T23:32:40.699Z,99.90
2018-12-12T23:35:09.779Z,99.90
2018-12-12T23:37:38.839Z,99.90
2018-12-12T23:40:08.084Z,99.90
2018-12-12T23:42:37.150Z,99.90
2018-12-12T23:45:06.353Z,99.90
2018-12-12T23:47:35.478Z,99.90
2018-12-12T23:50:04.940Z,99.90
2018-12-12T23:52:34.019Z,99.90
2018-12-12T23:55:03.153Z,99.90
2018-12-12T23:57:32.496Z,99.90
